East Highgate, Vermont
Current Conditions -  °F | °C
As of 2:15 AM on Wednesday 22 Oct 2014 (Local Time) from KFSO Reporting Station
Light Rain Light Rain  
Wind Chill: 40°   Ceiling: 300
Heat Index: 44°   Visibility: 4mi
Dew Point: 43°   Wind: 6mph
Humidity: 97%   Direction: 350°N
Pressure: 30.12"   Gusts: NA
Location:  44.958°N, 72.9958°W
Report Text: KFSO 220615Z AUTO 35005KT 4SM -RA OVC003 07/06 A3012 RMK AO2 T00650061
Loading
Personal Weather Stations






























Interactive Weather Map
Tropical Storm Tracking
New forecast layout! Learn more

10-Day Weather Forecast

Advertisements
Track Severe Weather on mobile